sensor_id;sensor_type;location;lat;lon;timestamp;pressure;altitude;pressure_sealevel;temperature;humidity
55456;BME280;63021;52.836;6.376;2023-04-27T00:01:13;102223.41;;;2.38;67.41
55456;BME280;63021;52.836;6.376;2023-04-27T00:03:39;102225.13;;;2.39;66.94
55456;BME280;63021;52.836;6.376;2023-04-27T00:06:05;102220.34;;;2.27;67.07
55456;BME280;63021;52.836;6.376;2023-04-27T00:08:30;102220.25;;;2.30;67.09
55456;BME280;63021;52.836;6.376;2023-04-27T00:10:56;102225.56;;;2.29;67.12
55456;BME280;63021;52.836;6.376;2023-04-27T00:13:22;102212.63;;;2.22;67.27
55456;BME280;63021;52.836;6.376;2023-04-27T00:15:47;102228.34;;;2.24;67.72
55456;BME280;63021;52.836;6.376;2023-04-27T00:18:13;102216.19;;;2.21;67.51
55456;BME280;63021;52.836;6.376;2023-04-27T00:20:38;102213.06;;;2.12;67.90
55456;BME280;63021;52.836;6.376;2023-04-27T00:23:04;102219.97;;;2.14;67.72
55456;BME280;63021;52.836;6.376;2023-04-27T00:25:30;102238.50;;;2.10;67.67
55456;BME280;63021;52.836;6.376;2023-04-27T00:27:55;102221.22;;;2.04;67.49
55456;BME280;63021;52.836;6.376;2023-04-27T00:30:20;102228.25;;;2.03;67.42
55456;BME280;63021;52.836;6.376;2023-04-27T00:32:46;102223.91;;;2.02;67.99
55456;BME280;63021;52.836;6.376;2023-04-27T00:35:11;102226.69;;;1.98;67.53
55456;BME280;63021;52.836;6.376;2023-04-27T00:37:37;102227.66;;;1.95;67.85
55456;BME280;63021;52.836;6.376;2023-04-27T00:40:03;102233.84;;;1.94;67.62
55456;BME280;63021;52.836;6.376;2023-04-27T00:42:30;102249.81;;;1.88;67.96
55456;BME280;63021;52.836;6.376;2023-04-27T00:44:56;102247.34;;;1.83;68.15
55456;BME280;63021;52.836;6.376;2023-04-27T00:47:23;102233.28;;;1.86;67.78
55456;BME280;63021;52.836;6.376;2023-04-27T00:49:48;102234.16;;;1.85;67.77
55456;BME280;63021;52.836;6.376;2023-04-27T00:52:14;102236.19;;;1.78;68.27
55456;BME280;63021;52.836;6.376;2023-04-27T00:54:39;102241.38;;;1.80;68.01
55456;BME280;63021;52.836;6.376;2023-04-27T00:57:05;102242.47;;;1.74;68.36
55456;BME280;63021;52.836;6.376;2023-04-27T00:59:30;102239.00;;;1.72;68.10
55456;BME280;63021;52.836;6.376;2023-04-27T01:01:56;102235.59;;;1.70;67.89
55456;BME280;63021;52.836;6.376;2023-04-27T01:04:22;102238.34;;;1.67;68.06
55456;BME280;63021;52.836;6.376;2023-04-27T01:06:47;102234.22;;;1.60;67.99
55456;BME280;63021;52.836;6.376;2023-04-27T01:09:13;102240.44;;;1.57;68.48
55456;BME280;63021;52.836;6.376;2023-04-27T01:11:40;102222.13;;;1.55;68.77
55456;BME280;63021;52.836;6.376;2023-04-27T01:14:06;102227.47;;;1.52;68.36
55456;BME280;63021;52.836;6.376;2023-04-27T01:16:32;102219.75;;;1.48;68.16
55456;BME280;63021;52.836;6.376;2023-04-27T01:18:58;102224.16;;;1.47;68.35
55456;BME280;63021;52.836;6.376;2023-04-27T01:21:24;102225.03;;;1.46;68.52
55456;BME280;63021;52.836;6.376;2023-04-27T01:23:50;102222.69;;;1.38;68.79
55456;BME280;63021;52.836;6.376;2023-04-27T01:26:15;102239.22;;;1.41;68.70
55456;BME280;63021;52.836;6.376;2023-04-27T01:28:41;102224.47;;;1.38;68.53
55456;BME280;63021;52.836;6.376;2023-04-27T01:31:09;102215.91;;;1.33;68.46
55456;BME280;63021;52.836;6.376;2023-04-27T01:33:35;102218.47;;;1.34;68.85
55456;BME280;63021;52.836;6.376;2023-04-27T01:36:01;102220.34;;;1.31;68.36
55456;BME280;63021;52.836;6.376;2023-04-27T01:38:26;102224.66;;;1.32;68.47
55456;BME280;63021;52.836;6.376;2023-04-27T01:40:52;102205.69;;;1.25;68.73
55456;BME280;63021;52.836;6.376;2023-04-27T01:43:19;102226.63;;;1.27;68.50
55456;BME280;63021;52.836;6.376;2023-04-27T01:45:45;102224.03;;;1.25;68.97
55456;BME280;63021;52.836;6.376;2023-04-27T01:48:12;102224.03;;;1.25;68.64
55456;BME280;63021;52.836;6.376;2023-04-27T01:50:38;102233.88;;;1.18;69.20
55456;BME280;63021;52.836;6.376;2023-04-27T01:53:03;102256.59;;;1.19;69.00
55456;BME280;63021;52.836;6.376;2023-04-27T01:55:28;102234.84;;;1.16;68.92
55456;BME280;63021;52.836;6.376;2023-04-27T01:57:54;102238.56;;;1.09;68.82
55456;BME280;63021;52.836;6.376;2023-04-27T02:00:19;102251.63;;;1.10;68.85
55456;BME280;63021;52.836;6.376;2023-04-27T02:02:45;102239.41;;;1.11;68.79
55456;BME280;63021;52.836;6.376;2023-04-27T02:05:10;102241.34;;;1.04;68.89
55456;BME280;63021;52.836;6.376;2023-04-27T02:07:36;102239.56;;;1.04;69.21
55456;BME280;63021;52.836;6.376;2023-04-27T02:10:01;102234.28;;;1.06;69.25
55456;BME280;63021;52.836;6.376;2023-04-27T02:12:27;102235.25;;;1.03;69.12
55456;BME280;63021;52.836;6.376;2023-04-27T02:14:52;102232.66;;;1.02;69.40
55456;BME280;63021;52.836;6.376;2023-04-27T02:17:17;102238.78;;;1.02;69.59
55456;BME280;63021;52.836;6.376;2023-04-27T02:19:43;102223.25;;;0.96;68.93
55456;BME280;63021;52.836;6.376;2023-04-27T02:22:08;102228.44;;;0.98;69.31
55456;BME280;63021;52.836;6.376;2023-04-27T02:24:34;102232.81;;;0.97;69.59
55456;BME280;63021;52.836;6.376;2023-04-27T02:26:59;102232.13;;;0.92;69.16
55456;BME280;63021;52.836;6.376;2023-04-27T02:29:29;102229.41;;;0.95;69.06
55456;BME280;63021;52.836;6.376;2023-04-27T02:31:54;102218.97;;;0.94;69.14
55456;BME280;63021;52.836;6.376;2023-04-27T02:34:20;102214.69;;;0.91;68.80
55456;BME280;63021;52.836;6.376;2023-04-27T02:36:45;102219.13;;;0.89;69.60
55456;BME280;63021;52.836;6.376;2023-04-27T02:39:11;102212.97;;;0.90;69.09
55456;BME280;63021;52.836;6.376;2023-04-27T02:41:36;102207.81;;;0.87;69.71
55456;BME280;63021;52.836;6.376;2023-04-27T02:44:02;102205.25;;;0.85;69.12
55456;BME280;63021;52.836;6.376;2023-04-27T02:46:27;102217.63;;;0.80;69.22
55456;BME280;63021;52.836;6.376;2023-04-27T02:48:52;102217.63;;;0.80;69.30
55456;BME280;63021;52.836;6.376;2023-04-27T02:51:18;102232.41;;;0.83;69.29
55456;BME280;63021;52.836;6.376;2023-04-27T02:53:43;102222.81;;;0.82;69.18
55456;BME280;63021;52.836;6.376;2023-04-27T02:56:09;102200.22;;;0.79;69.37
55456;BME280;63021;52.836;6.376;2023-04-27T02:58:34;102182.09;;;0.72;69.88
55456;BME280;63021;52.836;6.376;2023-04-27T03:01:00;102189.84;;;0.76;69.54
55456;BME280;63021;52.836;6.376;2023-04-27T03:03:25;102196.66;;;0.80;69.78
55456;BME280;63021;52.836;6.376;2023-04-27T03:05:51;102205.56;;;0.76;69.61
55456;BME280;63021;52.836;6.376;2023-04-27T03:08:16;102215.06;;;0.79;69.45
55456;BME280;63021;52.836;6.376;2023-04-27T03:10:41;102222.19;;;0.75;69.36
55456;BME280;63021;52.836;6.376;2023-04-27T03:13:07;102221.38;;;0.73;69.23
55456;BME280;63021;52.836;6.376;2023-04-27T03:15:32;102213.66;;;0.68;69.38
55456;BME280;63021;52.836;6.376;2023-04-27T03:17:57;102208.56;;;0.64;70.03
55456;BME280;63021;52.836;6.376;2023-04-27T03:20:23;102208.63;;;0.62;69.69
55456;BME280;63021;52.836;6.376;2023-04-27T03:22:48;102199.13;;;0.58;69.99
55456;BME280;63021;52.836;6.376;2023-04-27T03:25:13;102202.81;;;0.52;69.55
55456;BME280;63021;52.836;6.376;2023-04-27T03:27:40;102201.03;;;0.53;70.20
55456;BME280;63021;52.836;6.376;2023-04-27T03:30:08;102204.63;;;0.50;69.92
55456;BME280;63021;52.836;6.376;2023-04-27T03:32:33;102200.19;;;0.52;69.41
55456;BME280;63021;52.836;6.376;2023-04-27T03:34:59;102206.22;;;0.55;70.20
55456;BME280;63021;52.836;6.376;2023-04-27T03:37:24;102206.28;;;0.53;70.18
55456;BME280;63021;52.836;6.376;2023-04-27T03:39:49;102200.97;;;0.55;69.74
55456;BME280;63021;52.836;6.376;2023-04-27T03:42:15;102198.56;;;0.48;69.73
55456;BME280;63021;52.836;6.376;2023-04-27T03:44:40;102230.84;;;0.50;69.83
55456;BME280;63021;52.836;6.376;2023-04-27T03:47:06;102218.63;;;0.49;69.99
55456;BME280;63021;52.836;6.376;2023-04-27T03:49:36;102213.28;;;0.52;69.75
55456;BME280;63021;52.836;6.376;2023-04-27T03:52:01;102211.56;;;0.51;69.64
55456;BME280;63021;52.836;6.376;2023-04-27T03:54:27;102212.38;;;0.54;70.06
55456;BME280;63021;52.836;6.376;2023-04-27T03:56:53;102203.59;;;0.55;69.85
55456;BME280;63021;52.836;6.376;2023-04-27T03:59:18;102230.84;;;0.50;70.30
55456;BME280;63021;52.836;6.376;2023-04-27T04:01:43;102202.00;;;0.50;69.73
55456;BME280;63021;52.836;6.376;2023-04-27T04:04:09;102208.84;;;0.55;69.86
55456;BME280;63021;52.836;6.376;2023-04-27T04:06:35;102209.72;;;0.55;70.30
55456;BME280;63021;52.836;6.376;2023-04-27T04:09:00;102214.91;;;0.57;70.23
55456;BME280;63021;52.836;6.376;2023-04-27T04:11:26;102217.47;;;0.58;70.02
55456;BME280;63021;52.836;6.376;2023-04-27T04:13:51;102215.66;;;0.60;70.29
55456;BME280;63021;52.836;6.376;2023-04-27T04:16:17;102202.56;;;0.60;70.55
55456;BME280;63021;52.836;6.376;2023-04-27T04:18:42;102214.75;;;0.61;70.26
55456;BME280;63021;52.836;6.376;2023-04-27T04:21:09;102207.84;;;0.59;70.64
55456;BME280;63021;52.836;6.376;2023-04-27T04:23:35;102223.50;;;0.62;70.03
55456;BME280;63021;52.836;6.376;2023-04-27T04:26:01;102214.72;;;0.63;70.04
55456;BME280;63021;52.836;6.376;2023-04-27T04:28:27;102219.94;;;0.63;69.79
55456;BME280;63021;52.836;6.376;2023-04-27T04:30:52;102237.59;;;0.58;70.42
55456;BME280;63021;52.836;6.376;2023-04-27T04:33:17;102233.97;;;0.62;70.17
55456;BME280;63021;52.836;6.376;2023-04-27T04:35:43;102231.34;;;0.62;70.14
55456;BME280;63021;52.836;6.376;2023-04-27T04:38:09;102232.25;;;0.61;70.52
55456;BME280;63021;52.836;6.376;2023-04-27T04:40:39;102237.53;;;0.59;69.92
55456;BME280;63021;52.836;6.376;2023-04-27T04:43:05;102259.41;;;0.58;70.50
55456;BME280;63021;52.836;6.376;2023-04-27T04:45:31;102232.47;;;0.53;70.24
55456;BME280;63021;52.836;6.376;2023-04-27T04:47:56;102250.66;;;0.59;70.42
55456;BME280;63021;52.836;6.376;2023-04-27T04:50:22;102233.25;;;0.57;70.35
55456;BME280;63021;52.836;6.376;2023-04-27T04:52:48;102246.22;;;0.61;70.09
55456;BME280;63021;52.836;6.376;2023-04-27T04:55:14;102236.63;;;0.60;70.61
55456;BME280;63021;52.836;6.376;2023-04-27T04:57:39;102247.09;;;0.62;70.89
55456;BME280;63021;52.836;6.376;2023-04-27T05:00:07;102252.31;;;0.62;70.52
55456;BME280;63021;52.836;6.376;2023-04-27T05:02:38;102253.91;;;0.66;70.93
55456;BME280;63021;52.836;6.376;2023-04-27T05:05:04;102262.56;;;0.69;70.16
55456;BME280;63021;52.836;6.376;2023-04-27T05:07:30;102257.13;;;0.76;70.39
55456;BME280;63021;52.836;6.376;2023-04-27T05:09:55;102283.22;;;0.79;70.31
55456;BME280;63021;52.836;6.376;2023-04-27T05:12:21;102257.94;;;0.78;70.75
55456;BME280;63021;52.836;6.376;2023-04-27T05:14:46;102254.06;;;0.90;69.93
55456;BME280;63021;52.836;6.376;2023-04-27T05:17:12;102253.00;;;0.95;70.83
55456;BME280;63021;52.836;6.376;2023-04-27T05:19:38;102257.19;;;1.01;70.21
55456;BME280;63021;52.836;6.376;2023-04-27T05:22:03;102264.78;;;1.09;69.91
55456;BME280;63021;52.836;6.376;2023-04-27T05:24:28;102256.72;;;1.15;70.57
55456;BME280;63021;52.836;6.376;2023-04-27T05:26:54;102258.22;;;1.22;69.94
55456;BME280;63021;52.836;6.376;2023-04-27T05:29:20;102260.59;;;1.30;70.33
55456;BME280;63021;52.836;6.376;2023-04-27T05:31:45;102247.28;;;1.36;70.16
55456;BME280;63021;52.836;6.376;2023-04-27T05:34:11;102263.44;;;1.49;69.86
55456;BME280;63021;52.836;6.376;2023-04-27T05:36:37;102259.59;;;1.59;69.84
55456;BME280;63021;52.836;6.376;2023-04-27T05:39:03;102265.31;;;1.70;70.07
55456;BME280;63021;52.836;6.376;2023-04-27T05:41:29;102257.81;;;1.85;69.83
55456;BME280;63021;52.836;6.376;2023-04-27T05:43:55;102257.25;;;2.00;69.75
55456;BME280;63021;52.836;6.376;2023-04-27T05:46:20;102277.72;;;2.16;69.38
55456;BME280;63021;52.836;6.376;2023-04-27T05:48:46;102255.31;;;2.29;69.16
55456;BME280;63021;52.836;6.376;2023-04-27T05:51:11;102268.66;;;2.47;69.13
55456;BME280;63021;52.836;6.376;2023-04-27T05:53:37;102244.41;;;2.62;68.86
55456;BME280;63021;52.836;6.376;2023-04-27T05:56:02;102257.53;;;2.84;69.47
55456;BME280;63021;52.836;6.376;2023-04-27T05:58:30;102252.56;;;2.99;68.42
55456;BME280;63021;52.836;6.376;2023-04-27T06:00:56;102264.97;;;3.17;69.06
55456;BME280;63021;52.836;6.376;2023-04-27T06:03:22;102264.59;;;3.26;69.03
55456;BME280;63021;52.836;6.376;2023-04-27T06:05:53;102276.31;;;3.40;68.93
55456;BME280;63021;52.836;6.376;2023-04-27T06:08:18;102267.91;;;3.52;68.29
55456;BME280;63021;52.836;6.376;2023-04-27T06:10:44;102264.63;;;3.66;69.23
55456;BME280;63021;52.836;6.376;2023-04-27T06:13:10;102267.41;;;3.84;68.57
55456;BME280;63021;52.836;6.376;2023-04-27T06:15:35;102287.84;;;3.97;68.98
55456;BME280;63021;52.836;6.376;2023-04-27T06:18:01;102295.84;;;4.15;68.83
55456;BME280;63021;52.836;6.376;2023-04-27T06:20:26;102257.41;;;4.30;69.27
55456;BME280;63021;52.836;6.376;2023-04-27T06:22:51;102274.28;;;4.45;68.70
55456;BME280;63021;52.836;6.376;2023-04-27T06:25:17;102249.97;;;4.57;68.78
55456;BME280;63021;52.836;6.376;2023-04-27T06:27:42;102257.78;;;4.78;68.35
55456;BME280;63021;52.836;6.376;2023-04-27T06:30:08;102260.59;;;4.92;68.12
55456;BME280;63021;52.836;6.376;2023-04-27T06:32:34;102258.13;;;5.07;67.99
55456;BME280;63021;52.836;6.376;2023-04-27T06:34:59;102261.84;;;5.20;67.51
55456;BME280;63021;52.836;6.376;2023-04-27T06:37:25;102271.72;;;5.34;67.29
55456;BME280;63021;52.836;6.376;2023-04-27T06:39:53;102257.03;;;5.46;67.43
55456;BME280;63021;52.836;6.376;2023-04-27T06:42:19;102256.59;;;5.55;67.35
55456;BME280;63021;52.836;6.376;2023-04-27T06:44:44;102250.88;;;5.63;67.37
55456;BME280;63021;52.836;6.376;2023-04-27T06:47:10;102252.81;;;5.77;66.72
55456;BME280;63021;52.836;6.376;2023-04-27T06:49:35;102248.75;;;5.87;67.22
55456;BME280;63021;52.836;6.376;2023-04-27T06:52:01;102252.00;;;5.92;66.33
55456;BME280;63021;52.836;6.376;2023-04-27T06:54:27;102252.75;;;6.12;66.39
55456;BME280;63021;52.836;6.376;2023-04-27T06:56:52;102257.38;;;6.24;66.30
55456;BME280;63021;52.836;6.376;2023-04-27T06:59:19;102244.25;;;6.38;66.33
55456;BME280;63021;52.836;6.376;2023-04-27T07:01:44;102244.16;;;6.56;66.47
55456;BME280;63021;52.836;6.376;2023-04-27T07:04:10;102240.22;;;6.63;65.77
55456;BME280;63021;52.836;6.376;2023-04-27T07:06:36;102247.53;;;6.90;65.34
55456;BME280;63021;52.836;6.376;2023-04-27T07:09:01;102239.81;;;7.01;65.01
55456;BME280;63021;52.836;6.376;2023-04-27T07:11:26;102240.72;;;7.16;65.04
55456;BME280;63021;52.836;6.376;2023-04-27T07:13:52;102240.09;;;7.27;64.81
55456;BME280;63021;52.836;6.376;2023-04-27T07:16:18;102241.34;;;7.36;64.66
55456;BME280;63021;52.836;6.376;2023-04-27T07:18:43;102240.78;;;7.45;63.82
55456;BME280;63021;52.836;6.376;2023-04-27T07:21:08;102246.28;;;7.56;63.92
55456;BME280;63021;52.836;6.376;2023-04-27T07:23:34;102241.19;;;7.68;63.50
55456;BME280;63021;52.836;6.376;2023-04-27T07:25:59;102237.00;;;7.78;62.76
55456;BME280;63021;52.836;6.376;2023-04-27T07:28:27;102239.09;;;7.87;62.25
55456;BME280;63021;52.836;6.376;2023-04-27T07:30:53;102239.47;;;7.95;61.72
55456;BME280;63021;52.836;6.376;2023-04-27T07:33:18;102243.63;;;8.00;61.34
55456;BME280;63021;52.836;6.376;2023-04-27T07:35:43;102242.69;;;8.15;60.70
55456;BME280;63021;52.836;6.376;2023-04-27T07:38:09;102232.88;;;8.30;60.39
55456;BME280;63021;52.836;6.376;2023-04-27T07:40:34;102230.41;;;8.41;60.13
55456;BME280;63021;52.836;6.376;2023-04-27T07:43:00;102231.84;;;8.47;58.83
55456;BME280;63021;52.836;6.376;2023-04-27T07:45:26;102229.25;;;8.60;58.30
55456;BME280;63021;52.836;6.376;2023-04-27T07:47:57;102231.13;;;8.72;57.88
55456;BME280;63021;52.836;6.376;2023-04-27T07:50:24;102219.50;;;8.73;58.06
55456;BME280;63021;52.836;6.376;2023-04-27T07:52:52;102256.16;;;8.95;57.71
55456;BME280;63021;52.836;6.376;2023-04-27T07:55:19;102230.56;;;9.07;57.08
55456;BME280;63021;52.836;6.376;2023-04-27T07:57:45;102233.47;;;9.17;56.48
55456;BME280;63021;52.836;6.376;2023-04-27T08:00:11;102225.81;;;9.25;56.07
55456;BME280;63021;52.836;6.376;2023-04-27T08:02:37;102217.75;;;9.27;56.08
55456;BME280;63021;52.836;6.376;2023-04-27T08:05:02;102236.88;;;9.45;55.12
55456;BME280;63021;52.836;6.376;2023-04-27T08:07:28;102224.66;;;9.55;55.28
55456;BME280;63021;52.836;6.376;2023-04-27T08:09:54;102205.19;;;9.54;54.52
55456;BME280;63021;52.836;6.376;2023-04-27T08:12:19;102221.88;;;9.69;54.37
55456;BME280;63021;52.836;6.376;2023-04-27T08:14:45;102227.94;;;9.84;100.00
55456;BME280;63021;52.836;6.376;2023-04-27T08:17:11;102248.34;;;9.97;53.77
55456;BME280;63021;52.836;6.376;2023-04-27T08:19:37;84837.06;;;-146.93;53.72
55456;BME280;63021;52.836;6.376;2023-04-27T08:22:02;102220.66;;;10.12;53.33
55456;BME280;63021;52.836;6.376;2023-04-27T08:24:28;102229.06;;;10.19;52.63
55456;BME280;63021;52.836;6.376;2023-04-27T08:26:53;102218.31;;;10.20;53.00
55456;BME280;63021;52.836;6.376;2023-04-27T08:29:18;102224.88;;;10.28;51.97
55456;BME280;63021;52.836;6.376;2023-04-27T08:31:44;102211.91;;;10.23;52.53
55456;BME280;63021;52.836;6.376;2023-04-27T08:34:09;102223.41;;;10.36;51.92
55456;BME280;63021;52.836;6.376;2023-04-27T08:36:35;102228.50;;;10.39;51.49
55456;BME280;63021;52.836;6.376;2023-04-27T08:39:01;102219.13;;;10.34;50.77
55456;BME280;63021;52.836;6.376;2023-04-27T08:41:26;102225.34;;;10.34;50.40
55456;BME280;63021;52.836;6.376;2023-04-27T08:43:51;102225.72;;;10.41;49.68
55456;BME280;63021;52.836;6.376;2023-04-27T08:46:21;102236.13;;;10.44;49.36
55456;BME280;63021;52.836;6.376;2023-04-27T08:48:54;102230.81;;;10.44;49.18
55456;BME280;63021;52.836;6.376;2023-04-27T08:51:21;102241.34;;;10.46;49.34
55456;BME280;63021;52.836;6.376;2023-04-27T08:53:57;102228.91;;;10.46;49.34
55456;BME280;63021;52.836;6.376;2023-04-27T08:56:24;102235.91;;;10.47;49.29
55456;BME280;63021;52.836;6.376;2023-04-27T08:58:51;102242.94;;;10.48;48.91
55456;BME280;63021;52.836;6.376;2023-04-27T09:01:17;102227.31;;;10.44;49.11
55456;BME280;63021;52.836;6.376;2023-04-27T09:03:43;102241.22;;;10.47;48.92
55456;BME280;63021;52.836;6.376;2023-04-27T09:06:11;102226.34;;;10.45;48.56
55456;BME280;63021;52.836;6.376;2023-04-27T09:08:47;102241.16;;;10.49;48.78
55456;BME280;63021;52.836;6.376;2023-04-27T09:11:15;102239.09;;;10.52;48.96
55456;BME280;63021;52.836;6.376;2023-04-27T09:13:42;102231.50;;;10.59;49.81
55456;BME280;63021;52.836;6.376;2023-04-27T09:16:12;102233.50;;;10.68;49.49
55456;BME280;63021;52.836;6.376;2023-04-27T09:18:42;102226.97;;;10.72;49.51
55456;BME280;63021;52.836;6.376;2023-04-27T09:21:08;102231.72;;;10.80;48.97
55456;BME280;63021;52.836;6.376;2023-04-27T09:23:36;102237.34;;;10.88;48.47
55456;BME280;63021;52.836;6.376;2023-04-27T09:26:04;102223.53;;;10.95;49.29
55456;BME280;63021;52.836;6.376;2023-04-27T09:28:33;102249.09;;;10.97;48.08
55456;BME280;63021;52.836;6.376;2023-04-27T09:31:00;102237.63;;;10.97;47.85
55456;BME280;63021;52.836;6.376;2023-04-27T09:33:33;102237.22;;;10.90;46.78
55456;BME280;63021;52.836;6.376;2023-04-27T09:36:01;102256.84;;;10.89;47.09
55456;BME280;63021;52.836;6.376;2023-04-27T09:38:28;102243.25;;;10.81;47.10
55456;BME280;63021;52.836;6.376;2023-04-27T09:40:54;102229.34;;;10.88;46.38
55456;BME280;63021;52.836;6.376;2023-04-27T09:43:21;102234.31;;;10.93;45.93
55456;BME280;63021;52.836;6.376;2023-04-27T09:45:48;102241.81;;;10.88;45.22
55456;BME280;63021;52.836;6.376;2023-04-27T09:48:14;102238.28;;;10.87;45.22
55456;BME280;63021;52.836;6.376;2023-04-27T09:50:41;102242.53;;;10.90;45.31
55456;BME280;63021;52.836;6.376;2023-04-27T09:53:14;102234.94;;;10.97;45.95
55456;BME280;63021;52.836;6.376;2023-04-27T09:58:44;102230.19;;;11.24;47.17
55456;BME280;63021;52.836;6.376;2023-04-27T10:01:27;102217.25;;;11.42;46.67
55456;BME280;63021;52.836;6.376;2023-04-27T10:09:09;102212.19;;;11.62;45.70
55456;BME280;63021;52.836;6.376;2023-04-27T10:11:38;102208.16;;;11.56;44.81
55456;BME280;63021;52.836;6.376;2023-04-27T10:14:09;102202.84;;;11.56;45.56
55456;BME280;63021;52.836;6.376;2023-04-27T10:19:09;102203.22;;;11.74;46.38
55456;BME280;63021;52.836;6.376;2023-04-27T10:21:35;102191.72;;;11.85;46.49
55456;BME280;63021;52.836;6.376;2023-04-27T10:24:06;102188.06;;;11.98;46.04
55456;BME280;63021;52.836;6.376;2023-04-27T10:26:35;102188.69;;;12.12;45.88
55456;BME280;63021;52.836;6.376;2023-04-27T10:29:08;102185.72;;;12.27;46.32
55456;BME280;63021;52.836;6.376;2023-04-27T10:31:34;102185.59;;;12.40;45.74
55456;BME280;63021;52.836;6.376;2023-04-27T10:34:10;102180.91;;;12.53;46.02
55456;BME280;63021;52.836;6.376;2023-04-27T10:36:37;102189.84;;;12.63;46.19
55456;BME280;63021;52.836;6.376;2023-04-27T10:39:13;102182.16;;;12.81;45.20
55456;BME280;63021;52.836;6.376;2023-04-27T10:41:48;102181.00;;;12.84;44.72
55456;BME280;63021;52.836;6.376;2023-04-27T10:44:25;102179.34;;;12.83;45.18
55456;BME280;63021;52.836;6.376;2023-04-27T10:46:55;102174.00;;;12.83;45.26
55456;BME280;63021;52.836;6.376;2023-04-27T10:49:22;102195.50;;;12.81;44.73
55456;BME280;63021;52.836;6.376;2023-04-27T10:51:49;102176.91;;;12.80;44.46
55456;BME280;63021;52.836;6.376;2023-04-27T10:54:15;102177.03;;;12.78;43.98
55456;BME280;63021;52.836;6.376;2023-04-27T10:56:41;102172.81;;;12.76;43.92
55456;BME280;63021;52.836;6.376;2023-04-27T10:59:07;102182.75;;;12.74;43.79
55456;BME280;63021;52.836;6.376;2023-04-27T11:01:34;102183.28;;;12.68;43.40
55456;BME280;63021;52.836;6.376;2023-04-27T11:04:00;102188.75;;;12.66;43.22
55456;BME280;63021;52.836;6.376;2023-04-27T11:06:27;102189.03;;;12.63;43.00
55456;BME280;63021;52.836;6.376;2023-04-27T11:08:55;102179.31;;;12.62;42.93
55456;BME280;63021;52.836;6.376;2023-04-27T11:11:21;102189.28;;;12.60;42.58
55456;BME280;63021;52.836;6.376;2023-04-27T11:13:48;102178.94;;;12.55;42.59
55456;BME280;63021;52.836;6.376;2023-04-27T11:16:14;102179.06;;;12.54;42.39
55456;BME280;63021;52.836;6.376;2023-04-27T11:18:40;102177.03;;;12.57;42.67
55456;BME280;63021;52.836;6.376;2023-04-27T11:21:11;102168.97;;;12.69;43.32
55456;BME280;63021;52.836;6.376;2023-04-27T11:23:38;102171.44;;;12.81;42.40
55456;BME280;63021;52.836;6.376;2023-04-27T11:26:15;102168.13;;;12.89;42.46
55456;BME280;63021;52.836;6.376;2023-04-27T11:28:55;102162.72;;;13.00;42.39
55456;BME280;63021;52.836;6.376;2023-04-27T11:31:21;102175.16;;;13.11;41.74
55456;BME280;63021;52.836;6.376;2023-04-27T11:33:47;102169.31;;;13.17;42.02
55456;BME280;63021;52.836;6.376;2023-04-27T11:36:17;102168.16;;;13.20;40.57
55456;BME280;63021;52.836;6.376;2023-04-27T11:38:43;102153.81;;;13.21;41.17
55456;BME280;63021;52.836;6.376;2023-04-27T11:41:09;102158.63;;;13.27;41.22
55456;BME280;63021;52.836;6.376;2023-04-27T11:43:39;102159.63;;;13.47;40.98
55456;BME280;63021;52.836;6.376;2023-04-27T11:46:06;102166.16;;;13.64;41.29
55456;BME280;63021;52.836;6.376;2023-04-27T11:48:35;102163.84;;;13.81;41.15
55456;BME280;63021;52.836;6.376;2023-04-27T11:51:02;102157.25;;;13.95;40.78
55456;BME280;63021;52.836;6.376;2023-04-27T11:53:35;102160.44;;;14.19;41.39
55456;BME280;63021;52.836;6.376;2023-04-27T11:56:02;102159.44;;;14.40;41.73
55456;BME280;63021;52.836;6.376;2023-04-27T11:58:34;102155.09;;;14.59;42.11
55456;BME280;63021;52.836;6.376;2023-04-27T12:01:01;102166.09;;;14.85;41.87
55456;BME280;63021;52.836;6.376;2023-04-27T12:03:28;102157.03;;;15.05;41.15
55456;BME280;63021;52.836;6.376;2023-04-27T12:05:54;102155.88;;;15.18;40.36
55456;BME280;63021;52.836;6.376;2023-04-27T12:08:20;102156.00;;;15.26;39.54
55456;BME280;63021;52.836;6.376;2023-04-27T12:10:46;102151.31;;;15.28;38.99
55456;BME280;63021;52.836;6.376;2023-04-27T12:13:14;102158.22;;;15.40;38.80
55456;BME280;63021;52.836;6.376;2023-04-27T12:15:41;102150.84;;;15.42;38.83
55456;BME280;63021;52.836;6.376;2023-04-27T12:18:06;102150.28;;;15.49;39.18
55456;BME280;63021;52.836;6.376;2023-04-27T12:20:33;102149.25;;;15.59;39.19
55456;BME280;63021;52.836;6.376;2023-04-27T12:22:58;102153.03;;;15.67;37.77
55456;BME280;63021;52.836;6.376;2023-04-27T12:25:23;102156.31;;;15.61;37.84
55456;BME280;63021;52.836;6.376;2023-04-27T12:27:49;102152.91;;;15.58;37.25
55456;BME280;63021;52.836;6.376;2023-04-27T12:30:15;102153.63;;;15.61;37.55
55456;BME280;63021;52.836;6.376;2023-04-27T12:32:41;102145.25;;;15.64;38.19
55456;BME280;63021;52.836;6.376;2023-04-27T12:35:07;102138.47;;;15.69;37.90
55456;BME280;63021;52.836;6.376;2023-04-27T12:37:33;102147.59;;;15.76;37.49
55456;BME280;63021;52.836;6.376;2023-04-27T12:39:59;102151.13;;;15.77;37.13
55456;BME280;63021;52.836;6.376;2023-04-27T12:42:24;102138.44;;;15.79;38.05
55456;BME280;63021;52.836;6.376;2023-04-27T13:04:35;102132.06;;;16.08;35.08
55456;BME280;63021;52.836;6.376;2023-04-27T13:07:01;102121.38;;;15.98;35.69
55456;BME280;63021;52.836;6.376;2023-04-27T13:09:27;102122.88;;;15.83;35.84
55456;BME280;63021;52.836;6.376;2023-04-27T13:11:53;102115.88;;;15.62;36.12
55456;BME280;63021;52.836;6.376;2023-04-27T13:14:19;102107.34;;;15.49;36.28
55456;BME280;63021;52.836;6.376;2023-04-27T13:16:45;102117.38;;;15.47;37.19
55456;BME280;63021;52.836;6.376;2023-04-27T13:19:20;102106.53;;;15.38;36.21
55456;BME280;63021;52.836;6.376;2023-04-27T13:24:47;102104.66;;;15.11;36.24
55456;BME280;63021;52.836;6.376;2023-04-27T13:27:12;102118.34;;;15.08;35.85